createdAt,value
2019-02-25T00:00:38.342Z,58.82
2019-02-25T00:03:07.862Z,58.96
2019-02-25T00:05:37.338Z,58.95
2019-02-25T00:08:06.889Z,58.80
2019-02-25T00:10:36.358Z,59.07
2019-02-25T00:13:05.887Z,59.45
2019-02-25T00:15:35.359Z,59.47
2019-02-25T00:18:24.559Z,60.31
2019-02-25T00:21:13.435Z,61.13
2019-02-25T00:24:02.277Z,62.24
2019-02-25T00:26:51.136Z,62.79
2019-02-25T00:29:39.987Z,62.57
2019-02-25T00:32:28.812Z,63.65
2019-02-25T00:35:10.859Z,63.45
2019-02-25T00:37:59.682Z,62.54
2019-02-25T00:40:48.486Z,63.06
2019-02-25T00:43:37.584Z,63.56
2019-02-25T00:46:26.379Z,62.94
2019-02-25T00:49:15.200Z,62.62
2019-02-25T00:52:03.991Z,63.33
2019-02-25T00:54:52.819Z,63.71
2019-02-25T00:57:41.608Z,64.00
2019-02-25T01:00:30.434Z,64.15
2019-02-25T01:03:19.328Z,64.89
2019-02-25T01:06:08.122Z,64.67
2019-02-25T01:08:56.940Z,65.52
2019-02-25T01:11:45.771Z,65.83
2019-02-25T01:14:34.589Z,65.05
2019-02-25T01:17:23.404Z,64.66
2019-02-25T01:20:33.111Z,64.43
2019-02-25T01:23:21.928Z,63.86
2019-02-25T01:26:10.757Z,65.11
2019-02-25T01:28:59.559Z,65.29
2019-02-25T01:34:35.953Z,65.94
2019-02-25T01:37:24.777Z,65.21
2019-02-25T01:40:34.904Z,64.83
2019-02-25T01:43:23.724Z,64.61
2019-02-25T01:46:12.535Z,65.12
2019-02-25T01:49:01.360Z,65.54
2019-02-25T01:51:50.178Z,66.09
2019-02-25T01:54:58.013Z,66.38
2019-02-25T01:57:46.838Z,66.40
2019-02-25T02:00:47.299Z,66.95
2019-02-25T02:03:26.180Z,66.62
2019-02-25T02:06:14.986Z,66.63
2019-02-25T02:09:04.045Z,66.22
2019-02-25T02:11:52.850Z,65.67
2019-02-25T02:14:41.663Z,66.04
2019-02-25T02:17:30.467Z,66.32
2019-02-25T02:20:19.352Z,66.11
2019-02-25T02:23:08.154Z,65.71
2019-02-25T02:25:56.979Z,65.62
2019-02-25T02:28:45.784Z,64.73
2019-02-25T02:31:34.669Z,65.56
2019-02-25T02:34:23.490Z,65.91
2019-02-25T02:37:05.575Z,65.33
2019-02-25T02:39:54.382Z,65.56
2019-02-25T02:43:04.157Z,65.13
2019-02-25T02:46:13.860Z,65.22
2019-02-25T02:52:18.005Z,64.89
2019-02-25T02:58:35.781Z,65.74
2019-02-25T03:01:24.573Z,65.38
2019-02-25T03:04:13.394Z,65.19
2019-02-25T03:07:02.539Z,66.04
2019-02-25T03:09:51.355Z,66.33
2019-02-25T03:12:40.476Z,66.71
2019-02-25T03:15:29.307Z,65.95
2019-02-25T03:18:18.101Z,66.56
2019-02-25T03:21:06.919Z,66.23
2019-02-25T03:23:55.715Z,66.15
2019-02-25T03:26:44.592Z,65.65
2019-02-25T03:29:33.408Z,66.20
2019-02-25T03:32:22.288Z,66.11
2019-02-25T03:35:11.210Z,66.05
2019-02-25T03:37:52.595Z,65.93
2019-02-25T03:40:41.541Z,66.19
2019-02-25T03:43:30.415Z,66.08
2019-02-25T03:46:19.287Z,66.75
2019-02-25T03:49:08.127Z,67.13
2019-02-25T03:51:56.995Z,66.75
2019-02-25T03:54:45.815Z,66.42
2019-02-25T03:57:36.154Z,66.67
2019-02-25T04:00:46.244Z,68.14
2019-02-25T04:03:35.193Z,67.86
2019-02-25T04:06:24.054Z,67.37
2019-02-25T04:09:12.961Z,67.26
2019-02-25T04:12:01.742Z,67.25
2019-02-25T04:14:50.562Z,67.19
2019-02-25T04:17:39.364Z,66.85
2019-02-25T04:20:28.179Z,66.84
2019-02-25T04:23:17.010Z,66.66
2019-02-25T04:26:05.811Z,66.77
2019-02-25T04:28:54.634Z,66.88
2019-02-25T04:31:43.433Z,67.08
2019-02-25T04:34:26.226Z,67.06
2019-02-25T04:37:15.022Z,67.81
2019-02-25T04:43:19.046Z,67.98
2019-02-25T04:46:07.846Z,67.70
2019-02-25T04:48:56.705Z,67.48
2019-02-25T04:51:45.527Z,67.84
2019-02-25T04:54:34.353Z,68.00
2019-02-25T04:57:23.154Z,67.89
2019-02-25T05:00:31.302Z,68.27
2019-02-25T05:03:20.105Z,68.36
2019-02-25T05:06:08.931Z,67.95
2019-02-25T05:08:57.732Z,68.25
2019-02-25T05:11:46.555Z,68.74
2019-02-25T05:14:35.362Z,69.08
2019-02-25T05:17:24.182Z,68.83
2019-02-25T05:23:39.861Z,68.32
2019-02-25T05:26:28.676Z,68.51
2019-02-25T05:29:17.516Z,68.97
2019-02-25T05:32:06.335Z,69.04
2019-02-25T05:34:48.021Z,69.87
2019-02-25T05:37:36.844Z,69.89
2019-02-25T05:40:25.720Z,69.69
2019-02-25T05:43:14.542Z,69.22
2019-02-25T05:46:03.365Z,68.61
2019-02-25T05:48:52.161Z,68.42
2019-02-25T05:51:40.991Z,68.40
2019-02-25T05:54:29.800Z,68.37
2019-02-25T05:57:18.679Z,68.43
2019-02-25T06:03:36.227Z,69.38
2019-02-25T06:06:25.033Z,69.60
2019-02-25T06:09:13.858Z,69.37
2019-02-25T06:12:02.661Z,69.95
2019-02-25T06:14:51.483Z,69.82
2019-02-25T06:17:40.284Z,69.65
2019-02-25T06:23:22.913Z,69.33
2019-02-25T06:26:12.025Z,69.74
2019-02-25T06:29:00.830Z,70.24
2019-02-25T06:32:08.682Z,70.36
2019-02-25T06:34:57.499Z,70.49
2019-02-25T06:37:38.787Z,70.26
2019-02-25T06:40:27.627Z,70.89
2019-02-25T06:43:16.418Z,70.79
2019-02-25T06:46:05.237Z,70.73
2019-02-25T06:48:54.054Z,70.54
2019-02-25T06:51:42.911Z,70.92
2019-02-25T06:54:31.703Z,70.73
2019-02-25T06:57:39.558Z,70.71
2019-02-25T07:00:28.435Z,71.08
2019-02-25T07:02:57.913Z,71.15
2019-02-25T07:06:05.744Z,71.31
2019-02-25T07:12:12.874Z,70.75
2019-02-25T07:18:30.099Z,69.77
2019-02-25T07:21:37.931Z,69.28
2019-02-25T07:24:26.541Z,68.90
2019-02-25T07:27:34.433Z,68.18
2019-02-25T07:33:51.615Z,67.49
2019-02-25T07:36:52.226Z,67.30
2019-02-25T07:40:00.282Z,67.16
2019-02-25T07:52:02.395Z,66.15
2019-02-25T07:55:10.225Z,66.00
2019-02-25T08:07:12.147Z,64.72
2019-02-25T08:10:00.676Z,64.30
2019-02-25T08:16:04.175Z,62.73
2019-02-25T08:19:12.006Z,62.26
2019-02-25T08:22:19.846Z,61.70
2019-02-25T08:25:08.497Z,61.50
2019-02-25T08:28:16.349Z,60.72
2019-02-25T08:31:24.421Z,60.63
2019-02-25T08:34:32.265Z,60.29
2019-02-25T08:37:37.799Z,59.78
2019-02-25T08:41:06.706Z,60.27
2019-02-25T08:44:14.618Z,60.86
2019-02-25T08:53:08.583Z,59.85
2019-02-25T08:55:58.339Z,59.37
2019-02-25T08:58:47.998Z,58.86
2019-02-25T09:01:36.825Z,58.47
2019-02-25T09:04:25.635Z,58.46
2019-02-25T09:07:14.429Z,58.09
2019-02-25T09:13:18.017Z,58.30
2019-02-25T09:16:06.814Z,57.73
2019-02-25T09:18:55.629Z,57.74
2019-02-25T09:21:44.446Z,58.36
2019-02-25T09:24:33.269Z,58.21
2019-02-25T09:27:22.056Z,56.49
2019-02-25T09:30:30.202Z,55.86
2019-02-25T09:33:19.075Z,54.90
2019-02-25T09:36:00.382Z,53.29
2019-02-25T09:38:49.188Z,52.83
2019-02-25T09:41:38.021Z,52.27
2019-02-25T09:44:26.850Z,52.19
2019-02-25T09:47:15.653Z,52.37
2019-02-25T09:50:24.312Z,52.46
2019-02-25T09:53:13.557Z,51.88
2019-02-25T09:56:02.379Z,51.44
2019-02-25T09:58:51.986Z,51.06
2019-02-25T10:01:41.693Z,50.87
2019-02-25T10:04:30.513Z,50.65
2019-02-25T10:07:19.364Z,50.49
2019-02-25T10:10:27.499Z,50.03
2019-02-25T10:13:16.306Z,49.77
2019-02-25T10:16:05.194Z,49.36
2019-02-25T10:18:54.024Z,49.56
2019-02-25T10:21:42.824Z,48.78
2019-02-25T10:24:31.655Z,48.57
2019-02-25T10:27:20.480Z,48.63
2019-02-25T10:30:30.199Z,47.13
2019-02-25T10:33:19.036Z,46.64
2019-02-25T10:36:01.131Z,45.84
2019-02-25T10:38:49.961Z,45.37
2019-02-25T10:41:38.759Z,44.49
2019-02-25T10:44:27.615Z,43.25
2019-02-25T10:47:18.979Z,42.34
2019-02-25T10:50:28.844Z,42.03
2019-02-25T10:53:20.285Z,41.16
2019-02-25T10:56:49.820Z,39.82
2019-02-25T10:59:39.524Z,39.76
2019-02-25T11:02:29.002Z,39.15
2019-02-25T11:05:19.005Z,37.61
2019-02-25T11:11:25.386Z,35.48
2019-02-25T11:14:14.066Z,34.29
2019-02-25T11:17:02.891Z,34.73
2019-02-25T11:19:42.693Z,34.99
2019-02-25T11:22:31.526Z,34.86
2019-02-25T11:25:21.592Z,34.71
2019-02-25T11:28:22.644Z,34.50
2019-02-25T11:31:01.496Z,34.18
2019-02-25T11:33:50.333Z,34.69
2019-02-25T11:36:31.672Z,33.63
2019-02-25T11:39:20.551Z,32.20
2019-02-25T11:42:10.817Z,33.40
2019-02-25T11:45:01.569Z,33.73
2019-02-25T11:47:50.462Z,33.55
2019-02-25T11:50:53.891Z,33.54
2019-02-25T11:53:29.811Z,33.36
2019-02-25T11:56:18.618Z,32.45
2019-02-25T11:59:07.786Z,34.00
2019-02-25T12:01:56.592Z,33.57
2019-02-25T12:04:45.416Z,33.09
2019-02-25T12:07:34.229Z,33.63
2019-02-25T12:10:23.120Z,33.56
2019-02-25T12:13:11.922Z,32.56
2019-02-25T12:16:00.743Z,32.78
2019-02-25T12:18:49.542Z,32.94
2019-02-25T12:21:30.882Z,32.21
2019-02-25T12:24:19.692Z,32.63
2019-02-25T12:27:08.510Z,33.48
2019-02-25T12:29:57.310Z,32.87
2019-02-25T12:32:46.136Z,32.66
2019-02-25T12:35:34.953Z,31.55
2019-02-25T12:38:23.774Z,31.91
2019-02-25T12:41:12.583Z,31.84
2019-02-25T12:44:01.401Z,31.55
2019-02-25T12:47:09.247Z,30.80
2019-02-25T12:49:58.065Z,30.39
2019-02-25T12:52:47.021Z,31.24
2019-02-25T12:55:35.824Z,30.26
2019-02-25T12:58:24.645Z,29.87
2019-02-25T13:01:13.445Z,30.12
2019-02-25T13:04:02.293Z,30.18
2019-02-25T13:06:51.086Z,29.88
2019-02-25T13:09:39.915Z,29.75
2019-02-25T13:12:28.729Z,28.95
2019-02-25T13:15:36.858Z,29.21
2019-02-25T13:18:25.683Z,30.11
2019-02-25T13:21:14.486Z,29.29
2019-02-25T13:23:57.475Z,28.83
2019-02-25T13:26:47.154Z,28.56
2019-02-25T13:29:35.960Z,28.80
2019-02-25T13:32:24.759Z,29.60
2019-02-25T13:38:29.604Z,29.60
2019-02-25T13:41:18.415Z,28.65
2019-02-25T13:44:07.310Z,28.54
2019-02-25T13:46:56.102Z,28.14
2019-02-25T13:49:44.925Z,27.66
2019-02-25T13:52:33.976Z,28.17
2019-02-25T13:55:23.073Z,27.71
2019-02-25T13:58:12.198Z,27.64
2019-02-25T14:01:01.015Z,26.97
2019-02-25T14:03:49.993Z,27.86
2019-02-25T14:06:57.840Z,27.32
2019-02-25T14:09:46.642Z,27.81
2019-02-25T14:12:35.462Z,27.20
2019-02-25T14:18:40.021Z,26.23
2019-02-25T14:21:28.891Z,25.77
2019-02-25T14:24:18.486Z,25.73
2019-02-25T14:27:08.276Z,25.41
2019-02-25T14:29:57.183Z,24.97
2019-02-25T14:32:46.057Z,24.60
2019-02-25T14:35:34.884Z,24.40
2019-02-25T14:38:25.233Z,25.12
2019-02-25T14:41:16.163Z,26.44
2019-02-25T14:44:04.755Z,26.24
2019-02-25T14:46:53.578Z,25.36
2019-02-25T14:49:42.898Z,25.59
2019-02-25T14:52:32.932Z,25.44
2019-02-25T14:55:21.751Z,25.13
2019-02-25T14:58:33.442Z,25.23
2019-02-25T15:01:21.053Z,25.32
2019-02-25T15:04:10.818Z,25.33
2019-02-25T15:06:59.625Z,25.92
2019-02-25T15:09:48.467Z,26.91
2019-02-25T15:12:37.756Z,27.40
2019-02-25T15:15:27.810Z,26.93
2019-02-25T15:17:57.434Z,26.61
2019-02-25T15:20:46.397Z,26.29
2019-02-25T15:23:29.560Z,26.07
2019-02-25T15:26:43.046Z,25.30
2019-02-25T15:29:28.597Z,24.91
2019-02-25T15:32:19.138Z,24.39
2019-02-25T15:38:18.909Z,24.68
2019-02-25T15:41:09.625Z,24.75
2019-02-25T15:44:02.106Z,25.13
2019-02-25T15:46:48.826Z,25.15
2019-02-25T15:49:37.716Z,25.15
2019-02-25T15:52:27.723Z,25.42
2019-02-25T15:55:19.004Z,25.49
2019-02-25T15:58:08.747Z,25.90
2019-02-25T16:00:58.302Z,26.36
2019-02-25T16:03:47.116Z,27.89
2019-02-25T16:06:37.717Z,28.55
2019-02-25T16:09:27.626Z,28.87
2019-02-25T16:12:17.291Z,29.30
2019-02-25T16:15:25.494Z,29.15
2019-02-25T16:18:14.908Z,29.73
2019-02-25T16:21:03.708Z,29.79
2019-02-25T16:26:27.502Z,32.98
2019-02-25T16:29:16.301Z,33.94
2019-02-25T16:32:05.294Z,34.49
2019-02-25T16:34:55.546Z,34.75
2019-02-25T16:37:44.660Z,34.80
2019-02-25T16:40:35.554Z,35.06
2019-02-25T16:43:24.074Z,35.88
2019-02-25T16:46:15.444Z,36.28
2019-02-25T16:49:03.493Z,36.71
2019-02-25T16:51:53.170Z,36.79
2019-02-25T16:54:42.863Z,37.16
2019-02-25T16:57:31.677Z,37.28
2019-02-25T17:00:41.841Z,38.65
2019-02-25T17:06:46.445Z,40.19
2019-02-25T17:09:37.004Z,40.56
2019-02-25T17:12:16.894Z,40.19
2019-02-25T17:18:26.088Z,40.87
2019-02-25T17:21:08.234Z,40.26
2019-02-25T17:23:58.186Z,41.19
2019-02-25T17:26:47.657Z,41.07
2019-02-25T17:29:36.490Z,42.09
2019-02-25T17:32:25.523Z,42.31
2019-02-25T17:35:35.170Z,41.56
2019-02-25T17:38:24.667Z,41.42
2019-02-25T17:41:14.517Z,41.74
2019-02-25T17:44:05.199Z,43.88
2019-02-25T17:46:55.304Z,44.01
2019-02-25T17:49:44.547Z,44.60
2019-02-25T17:52:36.083Z,44.38
2019-02-25T17:55:46.592Z,43.81
2019-02-25T17:58:35.955Z,43.72
2019-02-25T18:01:27.898Z,43.95
2019-02-25T18:04:16.502Z,44.63
2019-02-25T18:07:05.290Z,44.84
2019-02-25T18:09:54.129Z,44.76
2019-02-25T18:12:42.929Z,45.20
2019-02-25T18:15:32.313Z,45.29
2019-02-25T18:18:22.161Z,45.73
2019-02-25T18:21:06.390Z,45.85
2019-02-25T18:23:55.474Z,46.44
2019-02-25T18:26:47.028Z,47.31
2019-02-25T18:29:18.538Z,48.75
2019-02-25T18:32:08.572Z,49.41
2019-02-25T18:35:00.404Z,49.75
2019-02-25T18:37:49.368Z,49.57
2019-02-25T18:40:41.364Z,49.76
2019-02-25T18:43:30.498Z,49.76
2019-02-25T18:46:21.081Z,50.05
2019-02-25T18:52:17.659Z,50.97
2019-02-25T18:55:29.240Z,51.13
2019-02-25T19:01:15.386Z,51.22
2019-02-25T19:04:03.927Z,51.16
2019-02-25T19:06:52.759Z,51.44
2019-02-25T19:09:43.056Z,51.51
2019-02-25T19:12:32.250Z,51.91
2019-02-25T19:15:21.128Z,53.29
2019-02-25T19:21:17.753Z,53.64
2019-02-25T19:23:59.455Z,53.67
2019-02-25T19:26:49.004Z,54.02
2019-02-25T19:29:38.800Z,54.01
2019-02-25T19:35:28.676Z,54.12
2019-02-25T19:41:15.426Z,54.45
2019-02-25T19:44:04.229Z,54.38
2019-02-25T19:46:55.846Z,54.39
2019-02-25T19:49:45.905Z,54.20
2019-02-25T19:52:37.183Z,53.79
2019-02-25T19:55:26.414Z,53.96
2019-02-25T19:58:09.368Z,53.97
2019-02-25T20:01:01.047Z,54.99
2019-02-25T20:03:48.703Z,55.05
2019-02-25T20:06:37.504Z,54.86
2019-02-25T20:12:25.392Z,54.50
2019-02-25T20:15:37.672Z,55.17
2019-02-25T20:18:24.048Z,55.38
2019-02-25T20:21:14.564Z,55.55
2019-02-25T20:24:03.379Z,55.54
2019-02-25T20:26:55.076Z,56.25
2019-02-25T20:29:44.495Z,56.34
2019-02-25T20:32:34.215Z,56.43
2019-02-25T20:35:24.600Z,56.58
2019-02-25T20:38:14.281Z,57.01
2019-02-25T20:43:58.843Z,57.29
2019-02-25T20:46:50.626Z,57.44
2019-02-25T20:49:57.917Z,57.28
2019-02-25T20:52:48.452Z,57.32
2019-02-25T20:58:46.673Z,60.44
2019-02-25T21:01:39.527Z,61.04
2019-02-25T21:07:20.238Z,60.50
2019-02-25T21:10:32.802Z,61.13
2019-02-25T21:13:22.048Z,61.01
2019-02-25T21:16:11.046Z,60.52
2019-02-25T21:18:59.866Z,60.24
2019-02-25T21:21:52.819Z,59.98
2019-02-25T21:24:39.565Z,59.91
2019-02-25T21:27:30.191Z,60.66
2019-02-25T21:30:43.221Z,61.09
2019-02-25T21:33:30.490Z,61.42
2019-02-25T21:36:20.883Z,61.50
2019-02-25T21:42:21.796Z,61.36
2019-02-25T21:45:32.328Z,61.20
2019-02-25T21:48:23.126Z,61.28
2019-02-25T21:51:13.758Z,61.30
2019-02-25T21:54:02.766Z,63.64
2019-02-25T21:56:52.682Z,63.95
2019-02-25T21:59:41.486Z,65.40
2019-02-25T22:02:23.449Z,65.91
2019-02-25T22:05:14.347Z,66.07
2019-02-25T22:08:24.126Z,66.01
2019-02-25T22:11:15.597Z,65.68
2019-02-25T22:14:02.973Z,65.60
2019-02-25T22:16:52.710Z,65.35
2019-02-25T22:19:43.730Z,65.50
2019-02-25T22:22:33.224Z,66.00
2019-02-25T22:25:23.925Z,66.92
2019-02-25T22:28:12.729Z,67.79
2019-02-25T22:31:01.546Z,66.47
2019-02-25T22:33:50.342Z,66.07
2019-02-25T22:36:41.537Z,65.64
2019-02-25T22:39:31.889Z,65.31
2019-02-25T22:42:20.220Z,65.35
2019-02-25T22:45:31.466Z,65.90
2019-02-25T22:48:21.540Z,66.24
2019-02-25T22:51:11.077Z,67.04
2019-02-25T22:53:59.944Z,66.71
2019-02-25T22:56:48.840Z,66.99
2019-02-25T22:59:37.768Z,67.05
2019-02-25T23:02:19.720Z,67.51
2019-02-25T23:05:12.688Z,67.48
2019-02-25T23:07:59.079Z,68.21
2019-02-25T23:13:55.937Z,68.30
2019-02-25T23:16:45.795Z,68.53
2019-02-25T23:19:37.113Z,69.05
2019-02-25T23:22:25.865Z,69.20
2019-02-25T23:25:14.683Z,69.25
2019-02-25T23:28:03.482Z,68.58
2019-02-25T23:30:53.268Z,67.98
2019-02-25T23:33:44.380Z,68.00
2019-02-25T23:36:33.714Z,67.68
2019-02-25T23:39:22.508Z,67.37
2019-02-25T23:42:11.901Z,67.33
2019-02-25T23:45:01.839Z,67.18
2019-02-25T23:50:59.665Z,67.42
2019-02-25T23:53:35.392Z,67.42
2019-02-25T23:56:25.648Z,68.05
2019-02-25T23:59:16.909Z,68.82
